sensor_id;sensor_type;location;lat;lon;timestamp;P1;durP1;ratioP1;P2;durP2;ratioP2
57029;SDS011;42920;45.306;20.448;2023-03-01T00:01:22;56.75;;;31.58;;
57029;SDS011;42920;45.306;20.448;2023-03-01T00:03:50;55.55;;;31.05;;
57029;SDS011;42920;45.306;20.448;2023-03-01T00:06:17;52.72;;;30.13;;
57029;SDS011;42920;45.306;20.448;2023-03-01T00:08:43;54.35;;;29.55;;
57029;SDS011;42920;45.306;20.448;2023-03-01T00:13:38;55.50;;;30.20;;
57029;SDS011;42920;45.306;20.448;2023-03-01T00:16:06;55.75;;;30.05;;
57029;SDS011;42920;45.306;20.448;2023-03-01T00:18:33;55.20;;;28.75;;
57029;SDS011;42920;45.306;20.448;2023-03-01T00:23:25;59.55;;;30.67;;
57029;SDS011;42920;45.306;20.448;2023-03-01T00:28:16;60.97;;;30.75;;
57029;SDS011;42920;45.306;20.448;2023-03-01T00:30:42;50.50;;;28.92;;
57029;SDS011;42920;45.306;20.448;2023-03-01T00:33:08;54.83;;;29.38;;
57029;SDS011;42920;45.306;20.448;2023-03-01T00:38:00;58.97;;;30.05;;
57029;SDS011;42920;45.306;20.448;2023-03-01T00:40:27;58.78;;;28.88;;
57029;SDS011;42920;45.306;20.448;2023-03-01T00:42:53;53.80;;;28.95;;
57029;SDS011;42920;45.306;20.448;2023-03-01T00:45:19;59.25;;;30.75;;
57029;SDS011;42920;45.306;20.448;2023-03-01T00:50:11;57.47;;;30.42;;
57029;SDS011;42920;45.306;20.448;2023-03-01T00:52:37;55.67;;;28.50;;
57029;SDS011;42920;45.306;20.448;2023-03-01T00:55:03;50.60;;;27.52;;
57029;SDS011;42920;45.306;20.448;2023-03-01T00:57:30;57.95;;;31.45;;
57029;SDS011;42920;45.306;20.448;2023-03-01T00:59:56;58.88;;;31.60;;
57029;SDS011;42920;45.306;20.448;2023-03-01T01:04:48;57.17;;;29.80;;
57029;SDS011;42920;45.306;20.448;2023-03-01T01:09:39;53.95;;;28.65;;
57029;SDS011;42920;45.306;20.448;2023-03-01T01:14:31;65.03;;;31.38;;
57029;SDS011;42920;45.306;20.448;2023-03-01T01:19:23;60.05;;;30.45;;
57029;SDS011;42920;45.306;20.448;2023-03-01T01:21:49;64.82;;;32.75;;
57029;SDS011;42920;45.306;20.448;2023-03-01T01:26:41;57.92;;;28.67;;
57029;SDS011;42920;45.306;20.448;2023-03-01T01:29:07;63.78;;;29.10;;
57029;SDS011;42920;45.306;20.448;2023-03-01T01:34:00;56.47;;;28.63;;
57029;SDS011;42920;45.306;20.448;2023-03-01T01:36:27;55.08;;;29.25;;
57029;SDS011;42920;45.306;20.448;2023-03-01T01:41:19;57.88;;;28.92;;
57029;SDS011;42920;45.306;20.448;2023-03-01T01:43:47;58.78;;;29.38;;
57029;SDS011;42920;45.306;20.448;2023-03-01T01:46:33;61.67;;;30.35;;
57029;SDS011;42920;45.306;20.448;2023-03-01T01:49:28;63.83;;;31.67;;
57029;SDS011;42920;45.306;20.448;2023-03-01T01:52:14;58.53;;;30.58;;
57029;SDS011;42920;45.306;20.448;2023-03-01T01:57:45;57.70;;;29.98;;
57029;SDS011;42920;45.306;20.448;2023-03-01T02:00:17;61.42;;;30.98;;
57029;SDS011;42920;45.306;20.448;2023-03-01T02:02:50;57.53;;;30.27;;
57029;SDS011;42920;45.306;20.448;2023-03-01T02:05:43;63.30;;;30.40;;
57029;SDS011;42920;45.306;20.448;2023-03-01T02:08:15;58.35;;;31.70;;
57029;SDS011;42920;45.306;20.448;2023-03-01T02:10:43;61.10;;;30.42;;
57029;SDS011;42920;45.306;20.448;2023-03-01T02:13:10;56.60;;;29.05;;
57029;SDS011;42920;45.306;20.448;2023-03-01T02:15:37;57.55;;;31.08;;
57029;SDS011;42920;45.306;20.448;2023-03-01T02:18:04;56.38;;;29.48;;
57029;SDS011;42920;45.306;20.448;2023-03-01T02:23:24;59.95;;;31.38;;
57029;SDS011;42920;45.306;20.448;2023-03-01T02:26:07;61.92;;;32.40;;
57029;SDS011;42920;45.306;20.448;2023-03-01T02:28:42;58.25;;;30.48;;
57029;SDS011;42920;45.306;20.448;2023-03-01T02:31:09;61.13;;;30.92;;
57029;SDS011;42920;45.306;20.448;2023-03-01T02:33:57;58.10;;;30.30;;
57029;SDS011;42920;45.306;20.448;2023-03-01T02:36:28;58.38;;;30.92;;
57029;SDS011;42920;45.306;20.448;2023-03-01T02:38:59;70.93;;;32.50;;
57029;SDS011;42920;45.306;20.448;2023-03-01T02:41:28;65.22;;;33.28;;
57029;SDS011;42920;45.306;20.448;2023-03-01T02:43:58;61.92;;;31.63;;
57029;SDS011;42920;45.306;20.448;2023-03-01T02:48:52;63.58;;;32.30;;
57029;SDS011;42920;45.306;20.448;2023-03-01T02:54:48;59.33;;;32.63;;
57029;SDS011;42920;45.306;20.448;2023-03-01T02:57:21;66.07;;;33.63;;
57029;SDS011;42920;45.306;20.448;2023-03-01T02:59:48;57.88;;;30.70;;
57029;SDS011;42920;45.306;20.448;2023-03-01T03:02:23;58.45;;;32.20;;
57029;SDS011;42920;45.306;20.448;2023-03-01T03:07:36;61.92;;;30.98;;
57029;SDS011;42920;45.306;20.448;2023-03-01T03:10:04;67.28;;;32.30;;
57029;SDS011;42920;45.306;20.448;2023-03-01T03:12:31;62.30;;;31.40;;
57029;SDS011;42920;45.306;20.448;2023-03-01T03:17:22;63.38;;;31.15;;
57029;SDS011;42920;45.306;20.448;2023-03-01T03:22:14;58.80;;;30.45;;
57029;SDS011;42920;45.306;20.448;2023-03-01T03:27:05;60.55;;;30.63;;
57029;SDS011;42920;45.306;20.448;2023-03-01T03:29:32;71.93;;;31.70;;
57029;SDS011;42920;45.306;20.448;2023-03-01T03:31:58;64.68;;;32.47;;
57029;SDS011;42920;45.306;20.448;2023-03-01T03:34:24;61.47;;;31.38;;
57029;SDS011;42920;45.306;20.448;2023-03-01T03:39:22;60.67;;;32.53;;
57029;SDS011;42920;45.306;20.448;2023-03-01T03:41:48;62.47;;;31.38;;
57029;SDS011;42920;45.306;20.448;2023-03-01T03:46:39;57.75;;;30.33;;
57029;SDS011;42920;45.306;20.448;2023-03-01T03:49:06;59.95;;;31.88;;
57029;SDS011;42920;45.306;20.448;2023-03-01T03:53:57;58.72;;;32.20;;
57029;SDS011;42920;45.306;20.448;2023-03-01T03:58:51;48.97;;;24.48;;
57029;SDS011;42920;45.306;20.448;2023-03-01T04:01:17;68.38;;;33.13;;
57029;SDS011;42920;45.306;20.448;2023-03-01T04:06:11;56.25;;;30.83;;
57029;SDS011;42920;45.306;20.448;2023-03-01T04:08:38;58.55;;;31.02;;
57029;SDS011;42920;45.306;20.448;2023-03-01T04:11:04;64.25;;;31.83;;
57029;SDS011;42920;45.306;20.448;2023-03-01T04:13:50;58.05;;;32.13;;
57029;SDS011;42920;45.306;20.448;2023-03-01T04:16:17;61.83;;;32.47;;
57029;SDS011;42920;45.306;20.448;2023-03-01T04:18:43;58.47;;;29.27;;
57029;SDS011;42920;45.306;20.448;2023-03-01T04:21:10;62.25;;;30.60;;
57029;SDS011;42920;45.306;20.448;2023-03-01T04:23:36;64.05;;;31.02;;
57029;SDS011;42920;45.306;20.448;2023-03-01T04:26:02;56.08;;;30.58;;
57029;SDS011;42920;45.306;20.448;2023-03-01T04:30:56;61.33;;;31.45;;
57029;SDS011;42920;45.306;20.448;2023-03-01T04:33:24;60.63;;;28.38;;
57029;SDS011;42920;45.306;20.448;2023-03-01T04:35:50;64.18;;;31.45;;
57029;SDS011;42920;45.306;20.448;2023-03-01T04:38:17;61.35;;;32.33;;
57029;SDS011;42920;45.306;20.448;2023-03-01T04:40:43;62.63;;;30.90;;
57029;SDS011;42920;45.306;20.448;2023-03-01T04:43:10;57.38;;;29.27;;
57029;SDS011;42920;45.306;20.448;2023-03-01T04:45:39;61.00;;;31.00;;
57029;SDS011;42920;45.306;20.448;2023-03-01T04:50:31;60.85;;;29.73;;
57029;SDS011;42920;45.306;20.448;2023-03-01T04:52:57;59.22;;;32.63;;
57029;SDS011;42920;45.306;20.448;2023-03-01T04:57:50;62.88;;;32.10;;
57029;SDS011;42920;45.306;20.448;2023-03-01T05:02:46;59.08;;;29.88;;
57029;SDS011;42920;45.306;20.448;2023-03-01T05:05:14;61.28;;;30.77;;
57029;SDS011;42920;45.306;20.448;2023-03-01T05:07:40;53.75;;;29.77;;
57029;SDS011;42920;45.306;20.448;2023-03-01T05:12:31;55.92;;;29.77;;
57029;SDS011;42920;45.306;20.448;2023-03-01T05:17:23;59.20;;;30.05;;
57029;SDS011;42920;45.306;20.448;2023-03-01T05:22:15;61.13;;;33.00;;
57029;SDS011;42920;45.306;20.448;2023-03-01T05:27:07;59.93;;;31.10;;
57029;SDS011;42920;45.306;20.448;2023-03-01T05:32:00;48.72;;;25.42;;
57029;SDS011;42920;45.306;20.448;2023-03-01T05:34:31;62.88;;;34.47;;
57029;SDS011;42920;45.306;20.448;2023-03-01T05:36:58;67.47;;;35.08;;
57029;SDS011;42920;45.306;20.448;2023-03-01T05:39:25;59.92;;;33.72;;
57029;SDS011;42920;45.306;20.448;2023-03-01T05:41:53;53.80;;;29.88;;
57029;SDS011;42920;45.306;20.448;2023-03-01T05:44:20;62.45;;;32.78;;
57029;SDS011;42920;45.306;20.448;2023-03-01T05:46:46;100.38;;;50.47;;
57029;SDS011;42920;45.306;20.448;2023-03-01T05:49:13;94.35;;;47.10;;
57029;SDS011;42920;45.306;20.448;2023-03-01T05:51:42;76.70;;;37.83;;
57029;SDS011;42920;45.306;20.448;2023-03-01T05:54:12;67.03;;;35.22;;
57029;SDS011;42920;45.306;20.448;2023-03-01T05:59:04;68.15;;;34.63;;
57029;SDS011;42920;45.306;20.448;2023-03-01T06:01:31;53.88;;;30.60;;
57029;SDS011;42920;45.306;20.448;2023-03-01T06:03:57;61.17;;;31.48;;
57029;SDS011;42920;45.306;20.448;2023-03-01T06:08:49;58.83;;;31.35;;
57029;SDS011;42920;45.306;20.448;2023-03-01T06:11:15;67.18;;;35.35;;
57029;SDS011;42920;45.306;20.448;2023-03-01T06:16:09;74.90;;;36.38;;
57029;SDS011;42920;45.306;20.448;2023-03-01T06:21:01;77.83;;;36.57;;
57029;SDS011;42920;45.306;20.448;2023-03-01T06:23:27;75.07;;;36.95;;
57029;SDS011;42920;45.306;20.448;2023-03-01T06:28:19;63.78;;;32.80;;
57029;SDS011;42920;45.306;20.448;2023-03-01T06:33:11;57.58;;;28.65;;
57029;SDS011;42920;45.306;20.448;2023-03-01T06:38:03;62.65;;;31.35;;
57029;SDS011;42920;45.306;20.448;2023-03-01T06:40:30;62.65;;;32.38;;
57029;SDS011;42920;45.306;20.448;2023-03-01T06:42:56;62.83;;;33.58;;
57029;SDS011;42920;45.306;20.448;2023-03-01T06:45:23;58.03;;;32.83;;
57029;SDS011;42920;45.306;20.448;2023-03-01T06:47:49;60.22;;;32.30;;
57029;SDS011;42920;45.306;20.448;2023-03-01T06:50:16;63.60;;;32.38;;
57029;SDS011;42920;45.306;20.448;2023-03-01T06:52:42;61.92;;;31.95;;
57029;SDS011;42920;45.306;20.448;2023-03-01T06:55:09;56.40;;;34.03;;
57029;SDS011;42920;45.306;20.448;2023-03-01T06:57:35;61.17;;;33.78;;
57029;SDS011;42920;45.306;20.448;2023-03-01T07:02:28;62.85;;;36.00;;
57029;SDS011;42920;45.306;20.448;2023-03-01T07:07:19;66.90;;;33.42;;
57029;SDS011;42920;45.306;20.448;2023-03-01T07:12:11;63.20;;;30.92;;
57029;SDS011;42920;45.306;20.448;2023-03-01T07:17:02;59.28;;;30.35;;
57029;SDS011;42920;45.306;20.448;2023-03-01T07:21:53;60.20;;;31.27;;
57029;SDS011;42920;45.306;20.448;2023-03-01T07:24:20;58.92;;;31.13;;
57029;SDS011;42920;45.306;20.448;2023-03-01T07:29:15;66.25;;;32.85;;
57029;SDS011;42920;45.306;20.448;2023-03-01T07:31:42;68.70;;;32.83;;
57029;SDS011;42920;45.306;20.448;2023-03-01T07:36:33;61.47;;;32.15;;
57029;SDS011;42920;45.306;20.448;2023-03-01T07:41:27;65.53;;;32.65;;
57029;SDS011;42920;45.306;20.448;2023-03-01T07:46:18;56.80;;;31.02;;
57029;SDS011;42920;45.306;20.448;2023-03-01T07:51:09;55.42;;;30.70;;
57029;SDS011;42920;45.306;20.448;2023-03-01T07:53:36;69.90;;;32.53;;
57029;SDS011;42920;45.306;20.448;2023-03-01T07:58:34;63.15;;;31.27;;
57029;SDS011;42920;45.306;20.448;2023-03-01T08:01:04;63.38;;;33.17;;
57029;SDS011;42920;45.306;20.448;2023-03-01T08:03:32;60.55;;;33.40;;
57029;SDS011;42920;45.306;20.448;2023-03-01T08:05:59;60.15;;;34.53;;
57029;SDS011;42920;45.306;20.448;2023-03-01T08:08:25;59.03;;;32.35;;
57029;SDS011;42920;45.306;20.448;2023-03-01T08:13:17;61.47;;;31.42;;
57029;SDS011;42920;45.306;20.448;2023-03-01T08:15:47;64.75;;;34.10;;
57029;SDS011;42920;45.306;20.448;2023-03-01T08:18:14;70.32;;;34.60;;
57029;SDS011;42920;45.306;20.448;2023-03-01T08:20:42;67.50;;;34.58;;
57029;SDS011;42920;45.306;20.448;2023-03-01T08:25:33;61.17;;;32.05;;
57029;SDS011;42920;45.306;20.448;2023-03-01T08:30:24;65.40;;;33.92;;
57029;SDS011;42920;45.306;20.448;2023-03-01T08:35:16;60.20;;;33.03;;
57029;SDS011;42920;45.306;20.448;2023-03-01T08:40:07;57.40;;;33.10;;
57029;SDS011;42920;45.306;20.448;2023-03-01T08:42:35;52.97;;;30.42;;
57029;SDS011;42920;45.306;20.448;2023-03-01T08:45:01;61.90;;;31.48;;
57029;SDS011;42920;45.306;20.448;2023-03-01T08:47:30;66.38;;;32.67;;
57029;SDS011;42920;45.306;20.448;2023-03-01T08:52:21;57.88;;;30.05;;
57029;SDS011;42920;45.306;20.448;2023-03-01T08:57:13;65.72;;;32.95;;
57029;SDS011;42920;45.306;20.448;2023-03-01T09:02:06;60.40;;;31.50;;
57029;SDS011;42920;45.306;20.448;2023-03-01T09:04:38;59.45;;;31.50;;
57029;SDS011;42920;45.306;20.448;2023-03-01T09:07:04;61.00;;;32.25;;
57029;SDS011;42920;45.306;20.448;2023-03-01T09:11:55;58.53;;;30.92;;
57029;SDS011;42920;45.306;20.448;2023-03-01T09:14:21;58.78;;;30.90;;
57029;SDS011;42920;45.306;20.448;2023-03-01T09:19:12;54.70;;;30.92;;
57029;SDS011;42920;45.306;20.448;2023-03-01T09:24:03;62.35;;;31.58;;
57029;SDS011;42920;45.306;20.448;2023-03-01T09:28:55;56.25;;;29.95;;
57029;SDS011;42920;45.306;20.448;2023-03-01T09:31:22;61.22;;;33.00;;
57029;SDS011;42920;45.306;20.448;2023-03-01T09:33:49;57.08;;;31.83;;
57029;SDS011;42920;45.306;20.448;2023-03-01T09:36:18;57.67;;;30.67;;
57029;SDS011;42920;45.306;20.448;2023-03-01T09:38:45;56.45;;;31.30;;
57029;SDS011;42920;45.306;20.448;2023-03-01T09:44:01;56.58;;;32.20;;
57029;SDS011;42920;45.306;20.448;2023-03-01T09:46:37;56.80;;;33.05;;
57029;SDS011;42920;45.306;20.448;2023-03-01T09:49:18;56.80;;;32.60;;
57029;SDS011;42920;45.306;20.448;2023-03-01T09:51:54;62.45;;;34.75;;
57029;SDS011;42920;45.306;20.448;2023-03-01T09:54:22;54.22;;;28.23;;
57029;SDS011;42920;45.306;20.448;2023-03-01T09:57:01;58.65;;;31.65;;
57029;SDS011;42920;45.306;20.448;2023-03-01T10:00:19;56.42;;;30.02;;
57029;SDS011;42920;45.306;20.448;2023-03-01T10:03:03;55.55;;;31.33;;
57029;SDS011;42920;45.306;20.448;2023-03-01T10:08:51;49.40;;;28.30;;
57029;SDS011;42920;45.306;20.448;2023-03-01T10:11:33;45.75;;;27.88;;
57029;SDS011;42920;45.306;20.448;2023-03-01T10:14:48;48.55;;;27.77;;
57029;SDS011;42920;45.306;20.448;2023-03-01T10:17:18;48.45;;;27.60;;
57029;SDS011;42920;45.306;20.448;2023-03-01T10:19:48;47.00;;;27.00;;
57029;SDS011;42920;45.306;20.448;2023-03-01T10:24:39;43.40;;;25.27;;
57029;SDS011;42920;45.306;20.448;2023-03-01T10:27:06;47.63;;;27.15;;
57029;SDS011;42920;45.306;20.448;2023-03-01T10:32:42;58.05;;;31.55;;
57029;SDS011;42920;45.306;20.448;2023-03-01T10:35:27;51.10;;;29.50;;
57029;SDS011;42920;45.306;20.448;2023-03-01T10:38:11;50.13;;;29.80;;
57029;SDS011;42920;45.306;20.448;2023-03-01T10:40:54;46.42;;;27.45;;
57029;SDS011;42920;45.306;20.448;2023-03-01T10:43:26;43.42;;;26.88;;
57029;SDS011;42920;45.306;20.448;2023-03-01T10:45:57;47.75;;;26.92;;
57029;SDS011;42920;45.306;20.448;2023-03-01T10:51:04;42.53;;;25.60;;
57029;SDS011;42920;45.306;20.448;2023-03-01T10:53:35;41.42;;;24.25;;
57029;SDS011;42920;45.306;20.448;2023-03-01T10:56:09;32.60;;;18.63;;
57029;SDS011;42920;45.306;20.448;2023-03-01T10:58:38;34.08;;;21.45;;
57029;SDS011;42920;45.306;20.448;2023-03-01T11:01:06;32.30;;;19.45;;
57029;SDS011;42920;45.306;20.448;2023-03-01T11:06:32;29.42;;;18.88;;
57029;SDS011;42920;45.306;20.448;2023-03-01T11:09:18;33.20;;;19.70;;
57029;SDS011;42920;45.306;20.448;2023-03-01T11:11:52;30.27;;;17.83;;
57029;SDS011;42920;45.306;20.448;2023-03-01T11:14:23;27.35;;;17.35;;
57029;SDS011;42920;45.306;20.448;2023-03-01T11:19:40;27.25;;;17.83;;
57029;SDS011;42920;45.306;20.448;2023-03-01T11:24:51;29.05;;;18.48;;
57029;SDS011;42920;45.306;20.448;2023-03-01T11:27:29;31.65;;;17.27;;
57029;SDS011;42920;45.306;20.448;2023-03-01T11:30:04;33.33;;;19.75;;
57029;SDS011;42920;45.306;20.448;2023-03-01T11:32:38;30.80;;;17.50;;
57029;SDS011;42920;45.306;20.448;2023-03-01T11:35:10;31.08;;;18.70;;
57029;SDS011;42920;45.306;20.448;2023-03-01T11:40:25;29.63;;;19.60;;
57029;SDS011;42920;45.306;20.448;2023-03-01T11:45:56;28.70;;;18.75;;
57029;SDS011;42920;45.306;20.448;2023-03-01T11:56:47;26.38;;;16.05;;
57029;SDS011;42920;45.306;20.448;2023-03-01T12:07:53;38.08;;;21.10;;
57029;SDS011;42920;45.306;20.448;2023-03-01T12:19:47;30.85;;;17.27;;
57029;SDS011;42920;45.306;20.448;2023-03-01T12:22:38;26.88;;;16.00;;
57029;SDS011;42920;45.306;20.448;2023-03-01T12:25:30;29.92;;;17.23;;
57029;SDS011;42920;45.306;20.448;2023-03-01T12:28:01;26.27;;;16.00;;
57029;SDS011;42920;45.306;20.448;2023-03-01T12:35:39;26.50;;;17.25;;
57029;SDS011;42920;45.306;20.448;2023-03-01T12:38:22;30.38;;;17.13;;
57029;SDS011;42920;45.306;20.448;2023-03-01T12:43:32;30.90;;;18.02;;
57029;SDS011;42920;45.306;20.448;2023-03-01T12:51:25;26.20;;;16.65;;
57029;SDS011;42920;45.306;20.448;2023-03-01T12:53:54;31.40;;;17.92;;
57029;SDS011;42920;45.306;20.448;2023-03-01T12:56:23;31.02;;;17.83;;
57029;SDS011;42920;45.306;20.448;2023-03-01T12:58:59;29.02;;;18.63;;
57029;SDS011;42920;45.306;20.448;2023-03-01T13:12:03;25.88;;;15.57;;
57029;SDS011;42920;45.306;20.448;2023-03-01T13:16:57;25.00;;;16.63;;
57029;SDS011;42920;45.306;20.448;2023-03-01T13:19:24;24.38;;;16.52;;
57029;SDS011;42920;45.306;20.448;2023-03-01T13:21:52;21.60;;;14.45;;
57029;SDS011;42920;45.306;20.448;2023-03-01T13:24:28;26.10;;;16.75;;
57029;SDS011;42920;45.306;20.448;2023-03-01T13:32:29;23.75;;;15.10;;
57029;SDS011;42920;45.306;20.448;2023-03-01T13:35:03;21.83;;;13.52;;
57029;SDS011;42920;45.306;20.448;2023-03-01T13:37:50;22.95;;;14.43;;
57029;SDS011;42920;45.306;20.448;2023-03-01T13:42:51;27.13;;;15.02;;
57029;SDS011;42920;45.306;20.448;2023-03-01T13:48:09;25.20;;;15.18;;
57029;SDS011;42920;45.306;20.448;2023-03-01T13:50:48;23.75;;;14.40;;
57029;SDS011;42920;45.306;20.448;2023-03-01T13:53:18;25.70;;;13.77;;
57029;SDS011;42920;45.306;20.448;2023-03-01T13:55:48;22.98;;;14.93;;
57029;SDS011;42920;45.306;20.448;2023-03-01T13:58:27;33.47;;;15.93;;
57029;SDS011;42920;45.306;20.448;2023-03-01T14:01:01;19.27;;;13.13;;
57029;SDS011;42920;45.306;20.448;2023-03-01T14:03:29;22.42;;;13.93;;
57029;SDS011;42920;45.306;20.448;2023-03-01T14:05:58;25.02;;;14.23;;
57029;SDS011;42920;45.306;20.448;2023-03-01T14:08:26;20.27;;;11.90;;
57029;SDS011;42920;45.306;20.448;2023-03-01T14:16:25;20.77;;;13.52;;
57029;SDS011;42920;45.306;20.448;2023-03-01T14:19:16;26.77;;;14.68;;
57029;SDS011;42920;45.306;20.448;2023-03-01T14:21:46;25.80;;;14.00;;
57029;SDS011;42920;45.306;20.448;2023-03-01T14:24:20;26.55;;;16.50;;
57029;SDS011;42920;45.306;20.448;2023-03-01T14:26:47;25.95;;;17.50;;
57029;SDS011;42920;45.306;20.448;2023-03-01T14:29:27;26.50;;;15.75;;
57029;SDS011;42920;45.306;20.448;2023-03-01T14:32:10;25.98;;;14.52;;
57029;SDS011;42920;45.306;20.448;2023-03-01T14:34:42;21.38;;;13.48;;
57029;SDS011;42920;45.306;20.448;2023-03-01T14:37:32;25.52;;;14.25;;
57029;SDS011;42920;45.306;20.448;2023-03-01T14:39:58;24.88;;;14.55;;
57029;SDS011;42920;45.306;20.448;2023-03-01T14:42:25;26.90;;;15.25;;
57029;SDS011;42920;45.306;20.448;2023-03-01T14:44:55;36.65;;;14.30;;
57029;SDS011;42920;45.306;20.448;2023-03-01T14:47:26;18.63;;;12.02;;
57029;SDS011;42920;45.306;20.448;2023-03-01T14:49:59;20.88;;;12.07;;
57029;SDS011;42920;45.306;20.448;2023-03-01T14:52:40;20.65;;;12.23;;
57029;SDS011;42920;45.306;20.448;2023-03-01T14:55:18;20.33;;;11.48;;
57029;SDS011;42920;45.306;20.448;2023-03-01T14:57:52;27.88;;;11.98;;
57029;SDS011;42920;45.306;20.448;2023-03-01T15:00:22;29.88;;;13.63;;
57029;SDS011;42920;45.306;20.448;2023-03-01T15:02:53;22.75;;;11.18;;
57029;SDS011;42920;45.306;20.448;2023-03-01T15:05:30;29.73;;;13.30;;
57029;SDS011;42920;45.306;20.448;2023-03-01T15:07:58;18.20;;;11.65;;
57029;SDS011;42920;45.306;20.448;2023-03-01T15:10:28;22.20;;;12.32;;
57029;SDS011;42920;45.306;20.448;2023-03-01T15:13:12;19.77;;;11.70;;
57029;SDS011;42920;45.306;20.448;2023-03-01T15:15:43;23.42;;;11.68;;
57029;SDS011;42920;45.306;20.448;2023-03-01T15:18:14;20.58;;;13.85;;
57029;SDS011;42920;45.306;20.448;2023-03-01T15:21:22;21.83;;;12.18;;
57029;SDS011;42920;45.306;20.448;2023-03-01T15:23:53;39.17;;;18.23;;
57029;SDS011;42920;45.306;20.448;2023-03-01T15:26:39;77.97;;;38.25;;
57029;SDS011;42920;45.306;20.448;2023-03-01T15:29:10;82.03;;;40.17;;
57029;SDS011;42920;45.306;20.448;2023-03-01T15:31:42;114.55;;;51.38;;
57029;SDS011;42920;45.306;20.448;2023-03-01T15:34:25;146.63;;;64.47;;
57029;SDS011;42920;45.306;20.448;2023-03-01T15:36:55;96.30;;;46.00;;
57029;SDS011;42920;45.306;20.448;2023-03-01T15:39:33;41.58;;;21.00;;
57029;SDS011;42920;45.306;20.448;2023-03-01T15:42:02;29.17;;;16.42;;
57029;SDS011;42920;45.306;20.448;2023-03-01T15:44:36;25.92;;;15.73;;
57029;SDS011;42920;45.306;20.448;2023-03-01T15:47:06;28.55;;;15.38;;
57029;SDS011;42920;45.306;20.448;2023-03-01T15:49:53;27.20;;;15.13;;
57029;SDS011;42920;45.306;20.448;2023-03-01T15:52:41;23.75;;;14.43;;
57029;SDS011;42920;45.306;20.448;2023-03-01T15:55:24;30.02;;;14.23;;
57029;SDS011;42920;45.306;20.448;2023-03-01T16:00:38;26.25;;;12.57;;
57029;SDS011;42920;45.306;20.448;2023-03-01T16:03:04;26.00;;;14.57;;
57029;SDS011;42920;45.306;20.448;2023-03-01T16:05:31;26.48;;;15.88;;
57029;SDS011;42920;45.306;20.448;2023-03-01T16:07:59;29.65;;;17.35;;
57029;SDS011;42920;45.306;20.448;2023-03-01T16:10:25;27.13;;;17.77;;
57029;SDS011;42920;45.306;20.448;2023-03-01T16:12:52;41.28;;;25.75;;
57029;SDS011;42920;45.306;20.448;2023-03-01T16:15:26;46.60;;;27.05;;
57029;SDS011;42920;45.306;20.448;2023-03-01T16:17:53;37.42;;;23.58;;
57029;SDS011;42920;45.306;20.448;2023-03-01T16:20:19;33.50;;;19.95;;
57029;SDS011;42920;45.306;20.448;2023-03-01T16:22:45;34.17;;;19.30;;
57029;SDS011;42920;45.306;20.448;2023-03-01T16:25:12;35.53;;;20.90;;
57029;SDS011;42920;45.306;20.448;2023-03-01T16:27:41;34.10;;;21.45;;
57029;SDS011;42920;45.306;20.448;2023-03-01T16:30:09;36.88;;;20.75;;
57029;SDS011;42920;45.306;20.448;2023-03-01T16:32:42;39.58;;;21.27;;
57029;SDS011;42920;45.306;20.448;2023-03-01T16:35:10;37.88;;;21.30;;
57029;SDS011;42920;45.306;20.448;2023-03-01T16:37:37;36.90;;;23.25;;
57029;SDS011;42920;45.306;20.448;2023-03-01T16:40:03;36.15;;;20.63;;
57029;SDS011;42920;45.306;20.448;2023-03-01T16:42:34;32.92;;;21.63;;
57029;SDS011;42920;45.306;20.448;2023-03-01T16:45:00;49.72;;;28.10;;
57029;SDS011;42920;45.306;20.448;2023-03-01T16:47:29;70.15;;;39.70;;
57029;SDS011;42920;45.306;20.448;2023-03-01T16:49:55;63.40;;;36.17;;
57029;SDS011;42920;45.306;20.448;2023-03-01T16:52:21;36.55;;;20.60;;
57029;SDS011;42920;45.306;20.448;2023-03-01T16:54:47;30.20;;;16.52;;
57029;SDS011;42920;45.306;20.448;2023-03-01T16:57:13;35.97;;;17.90;;
57029;SDS011;42920;45.306;20.448;2023-03-01T16:59:39;29.02;;;15.98;;
57029;SDS011;42920;45.306;20.448;2023-03-01T17:02:05;23.38;;;11.48;;
57029;SDS011;42920;45.306;20.448;2023-03-01T17:04:35;43.58;;;18.73;;
57029;SDS011;42920;45.306;20.448;2023-03-01T17:07:02;57.25;;;29.60;;
57029;SDS011;42920;45.306;20.448;2023-03-01T17:09:28;42.28;;;23.95;;
57029;SDS011;42920;45.306;20.448;2023-03-01T17:11:53;41.83;;;19.73;;
57029;SDS011;42920;45.306;20.448;2023-03-01T17:16:45;23.05;;;12.00;;
57029;SDS011;42920;45.306;20.448;2023-03-01T17:19:11;28.90;;;15.57;;
57029;SDS011;42920;45.306;20.448;2023-03-01T17:21:42;38.92;;;19.95;;
57029;SDS011;42920;45.306;20.448;2023-03-01T17:24:08;31.40;;;15.10;;
57029;SDS011;42920;45.306;20.448;2023-03-01T17:26:34;29.17;;;14.90;;
57029;SDS011;42920;45.306;20.448;2023-03-01T17:29:00;23.05;;;14.05;;
57029;SDS011;42920;45.306;20.448;2023-03-01T17:31:26;20.63;;;13.43;;
57029;SDS011;42920;45.306;20.448;2023-03-01T17:33:52;47.72;;;15.50;;
57029;SDS011;42920;45.306;20.448;2023-03-01T17:36:17;23.45;;;13.20;;
57029;SDS011;42920;45.306;20.448;2023-03-01T17:41:10;31.15;;;15.27;;
57029;SDS011;42920;45.306;20.448;2023-03-01T17:43:36;30.90;;;12.93;;
57029;SDS011;42920;45.306;20.448;2023-03-01T17:46:02;28.48;;;13.98;;
57029;SDS011;42920;45.306;20.448;2023-03-01T17:48:28;35.70;;;16.33;;
57029;SDS011;42920;45.306;20.448;2023-03-01T17:50:54;34.47;;;16.05;;
57029;SDS011;42920;45.306;20.448;2023-03-01T17:53:20;33.20;;;16.17;;
57029;SDS011;42920;45.306;20.448;2023-03-01T17:55:46;35.17;;;15.52;;
57029;SDS011;42920;45.306;20.448;2023-03-01T17:58:18;39.60;;;17.10;;
57029;SDS011;42920;45.306;20.448;2023-03-01T18:00:47;43.42;;;18.65;;
57029;SDS011;42920;45.306;20.448;2023-03-01T18:03:14;48.92;;;19.48;;
57029;SDS011;42920;45.306;20.448;2023-03-01T18:05:40;57.80;;;25.30;;
57029;SDS011;42920;45.306;20.448;2023-03-01T18:08:06;51.97;;;29.98;;
57029;SDS011;42920;45.306;20.448;2023-03-01T18:10:32;47.47;;;28.85;;
57029;SDS011;42920;45.306;20.448;2023-03-01T18:13:00;48.30;;;30.23;;
57029;SDS011;42920;45.306;20.448;2023-03-01T18:15:26;71.45;;;36.28;;
57029;SDS011;42920;45.306;20.448;2023-03-01T18:17:53;53.30;;;26.95;;
57029;SDS011;42920;45.306;20.448;2023-03-01T18:20:18;46.65;;;22.65;;
57029;SDS011;42920;45.306;20.448;2023-03-01T18:22:45;46.00;;;24.13;;
57029;SDS011;42920;45.306;20.448;2023-03-01T18:25:11;44.83;;;24.63;;
57029;SDS011;42920;45.306;20.448;2023-03-01T18:27:37;52.10;;;25.08;;
57029;SDS011;42920;45.306;20.448;2023-03-01T18:32:29;43.33;;;22.10;;
57029;SDS011;42920;45.306;20.448;2023-03-01T18:34:55;46.63;;;26.50;;
57029;SDS011;42920;45.306;20.448;2023-03-01T18:39:49;39.65;;;18.50;;
57029;SDS011;42920;45.306;20.448;2023-03-01T18:42:16;48.03;;;16.67;;
57029;SDS011;42920;45.306;20.448;2023-03-01T18:44:44;30.08;;;14.57;;
57029;SDS011;42920;45.306;20.448;2023-03-01T18:47:10;34.20;;;17.17;;
57029;SDS011;42920;45.306;20.448;2023-03-01T18:49:36;39.78;;;18.92;;
57029;SDS011;42920;45.306;20.448;2023-03-01T18:52:02;31.02;;;19.75;;